Overview Statistics Trail Chart Weather Telemetry Raw packets
 

This is the latest recevied weather packets stored in our database for station/object IN3MWE-10. If no packets are shown the sender has not sent any weather packets the latest 10 day(s).

<< 18 19 20 21 22 23 24 >>
Time Temp. Humidity Pressure Rain* Wind** Luminosity Snow
1788232815 17.78° C 88% 983.7 hPa - - - -
1788231914 17.78° C 90% 983.8 hPa - - - -
1788231027 18.33° C 88% 983.8 hPa - - - -
1788230127 18.33° C 88% 983.7 hPa - - - -
1788229227 18.33° C 90% 983.8 hPa - - - -
1788228327 18.89° C 88% 983.6 hPa - - - -
1788227427 18.33° C 90% 983.6 hPa - - - -
1788226527 18.89° C 87% 983.4 hPa - - - -
1788225627 18.89° C 87% 983.4 hPa - - - -
1788224726 18.89° C 88% 983.4 hPa - - - -
1788223826 18.89° C 88% 983.3 hPa - - - -
1788222926 20° C 82% 983 hPa - - - -
1788222026 20° C 81% 982.8 hPa - - - -
1788221126 20° C 80% 982.6 hPa - - - -
1788220226 20° C 80% 982.4 hPa - - - -
1788219326 20.56° C 77% 982.3 hPa - - - -
1788218425 20.56° C 77% 982.1 hPa - - - -
1788217525 21.11° C 75% 981.9 hPa - - - -
1788216625 21.67° C 70% 981.7 hPa - - - -
1788215725 22.22° C 67% 981.7 hPa - - - -
1788214825 21.67° C 67% 981.6 hPa - - - -
1788213925 22.78° C 68% 981.5 hPa - - - -
1788213025 22.22° C 67% 981.4 hPa - - - -
1788212124 23.33° C 60% 981.2 hPa - - - -
1788211224 23.33° C 60% 981 hPa - - - -

* Rain since midnight (hover to see other rain measurements)
** Current wind speed in m/s (hover to see current wind gust speed)